createdAt,value
2018-09-23T00:00:02.369Z,2.30
2018-09-23T00:02:30.637Z,2.50
2018-09-23T00:04:58.905Z,2.50
2018-09-23T00:07:27.183Z,2.47
2018-09-23T00:09:55.444Z,2.90
2018-09-23T00:12:23.727Z,2.53
2018-09-23T00:14:52.003Z,2.50
2018-09-23T00:17:20.288Z,2.30
2018-09-23T00:19:48.569Z,2.40
2018-09-23T00:22:16.878Z,2.67
2018-09-23T00:24:45.232Z,2.70
2018-09-23T00:27:13.524Z,2.60
2018-09-23T00:29:47.521Z,2.43
2018-09-23T00:32:15.798Z,2.57
2018-09-23T00:34:44.067Z,3.07
2018-09-23T00:37:12.337Z,3.40
2018-09-23T00:39:40.596Z,3.10
2018-09-23T00:42:08.885Z,3.17
2018-09-23T00:44:37.149Z,3.17
2018-09-23T00:47:05.774Z,3.03
2018-09-23T00:49:34.044Z,3.03
2018-09-23T00:52:02.310Z,3.10
2018-09-23T00:54:30.581Z,3.17
2018-09-23T00:56:58.848Z,3.83
2018-09-23T00:59:27.125Z,3.60
2018-09-23T01:01:55.384Z,3.50
2018-09-23T01:04:24.484Z,4.00
2018-09-23T01:06:52.768Z,3.90
2018-09-23T01:09:21.060Z,3.87
2018-09-23T01:11:49.334Z,4.42
2018-09-23T01:14:17.641Z,3.90
2018-09-23T01:16:45.937Z,3.97
2018-09-23T01:19:14.197Z,4.23
2018-09-23T01:21:42.573Z,3.83
2018-09-23T01:24:10.849Z,3.70
2018-09-23T01:26:39.130Z,4.37
2018-09-23T01:29:07.413Z,4.30
2018-09-23T01:31:35.692Z,4.50
2018-09-23T01:34:04.013Z,4.13
2018-09-23T01:36:32.305Z,4.30
2018-09-23T01:39:01.220Z,4.77
2018-09-23T01:41:29.510Z,5.57
2018-09-23T01:43:57.805Z,5.53
2018-09-23T01:46:26.099Z,5.30
2018-09-23T01:48:54.428Z,4.47
2018-09-23T01:51:22.743Z,5.60
2018-09-23T01:53:51.048Z,6.43
2018-09-23T01:56:19.460Z,5.73
2018-09-23T01:58:47.749Z,5.30
2018-09-23T02:01:16.029Z,5.57
2018-09-23T02:03:44.285Z,6.93
2018-09-23T02:06:12.584Z,6.00
2018-09-23T02:08:40.909Z,6.50
2018-09-23T02:11:09.232Z,6.80
2018-09-23T02:13:38.874Z,6.33
2018-09-23T02:16:07.188Z,5.97
2018-09-23T02:18:35.755Z,6.63
2018-09-23T02:21:04.083Z,5.83
2018-09-23T02:23:32.334Z,6.00
2018-09-23T02:26:00.601Z,5.33
2018-09-23T02:28:28.869Z,5.57
2018-09-23T02:30:57.141Z,5.30
2018-09-23T02:33:25.424Z,4.90
2018-09-23T02:35:53.706Z,4.80
2018-09-23T02:38:21.952Z,5.37
2018-09-23T02:40:50.218Z,4.60
2018-09-23T02:43:18.503Z,4.30
2018-09-23T02:45:46.905Z,4.90
2018-09-23T02:48:15.160Z,4.90
2018-09-23T02:50:43.553Z,5.00
2018-09-23T02:53:11.823Z,4.60
2018-09-23T02:55:40.093Z,4.60
2018-09-23T02:58:08.388Z,4.63
2018-09-23T03:00:36.661Z,4.23
2018-09-23T03:03:04.966Z,5.40
2018-09-23T03:05:33.600Z,4.63
2018-09-23T03:08:01.926Z,4.60
2018-09-23T03:10:30.885Z,4.50
2018-09-23T03:12:59.169Z,5.23
2018-09-23T03:15:27.452Z,5.17
2018-09-23T03:17:55.709Z,4.67
2018-09-23T03:20:23.967Z,4.77
2018-09-23T03:22:52.233Z,4.37
2018-09-23T03:25:20.566Z,4.90
2018-09-23T03:27:48.857Z,5.00
2018-09-23T03:30:17.157Z,4.67
2018-09-23T03:32:45.427Z,4.10
2018-09-23T03:35:13.688Z,4.20
2018-09-23T03:37:41.990Z,4.37
2018-09-23T03:40:10.273Z,4.27
2018-09-23T03:42:38.665Z,5.10
2018-09-23T03:45:06.979Z,4.40
2018-09-23T03:47:35.341Z,5.03
2018-09-23T03:50:03.773Z,4.70
2018-09-23T03:52:32.033Z,4.40
2018-09-23T03:55:00.301Z,4.73
2018-09-23T03:57:28.556Z,4.37
2018-09-23T03:59:56.848Z,3.83
2018-09-23T04:02:25.145Z,4.60
2018-09-23T04:04:53.415Z,4.10
2018-09-23T04:07:21.693Z,5.07
2018-09-23T04:09:49.985Z,3.70
2018-09-23T04:12:18.287Z,3.63
2018-09-23T04:14:46.577Z,3.23
2018-09-23T04:17:14.847Z,2.80
2018-09-23T04:19:43.116Z,2.70
2018-09-23T04:22:11.390Z,2.70
2018-09-23T04:24:39.664Z,2.00
2018-09-23T04:27:07.922Z,2.43
2018-09-23T04:29:36.198Z,1.90
2018-09-23T04:32:04.553Z,1.30
2018-09-23T04:34:32.857Z,1.40
2018-09-23T04:37:01.112Z,1.30
2018-09-23T04:39:29.382Z,1.50
2018-09-23T04:41:57.688Z,1.67
2018-09-23T04:44:25.952Z,1.70
2018-09-23T04:46:54.209Z,1.80
2018-09-23T04:49:22.492Z,1.60
2018-09-23T04:51:51.000Z,1.80
2018-09-23T04:54:19.280Z,1.67
2018-09-23T04:56:47.572Z,1.50
2018-09-23T04:59:15.832Z,1.67
2018-09-23T05:01:44.121Z,1.50
2018-09-23T05:04:12.497Z,1.50
2018-09-23T05:06:40.765Z,1.60
2018-09-23T05:09:10.117Z,1.80
2018-09-23T05:11:38.392Z,1.80
2018-09-23T05:14:06.877Z,1.30
2018-09-23T05:16:35.144Z,1.37
2018-09-23T05:19:03.565Z,1.33
2018-09-23T05:21:31.865Z,1.30
2018-09-23T05:24:00.188Z,1.73
2018-09-23T05:26:28.453Z,1.60
2018-09-23T05:28:56.769Z,1.47
2018-09-23T05:31:25.053Z,1.83
2018-09-23T05:33:53.328Z,1.40
2018-09-23T05:36:21.609Z,1.33
2018-09-23T05:38:49.873Z,1.63
2018-09-23T05:41:18.149Z,1.33
2018-09-23T05:43:46.429Z,1.70
2018-09-23T05:46:14.761Z,1.30
2018-09-23T05:48:43.053Z,1.30
2018-09-23T05:51:11.335Z,1.40
2018-09-23T05:53:39.612Z,1.37
2018-09-23T05:56:07.884Z,1.40
2018-09-23T05:58:36.162Z,1.27
2018-09-23T06:01:04.481Z,1.40
2018-09-23T06:03:32.876Z,1.20
2018-09-23T06:06:01.149Z,1.33
2018-09-23T06:08:29.481Z,1.20
2018-09-23T06:10:57.801Z,1.20
2018-09-23T06:13:26.076Z,1.30
2018-09-23T06:15:54.376Z,1.23
2018-09-23T06:18:22.707Z,1.20
2018-09-23T06:20:50.920Z,1.23
2018-09-23T06:23:19.200Z,1.40
2018-09-23T06:25:47.517Z,1.17
2018-09-23T06:28:15.792Z,1.40
2018-09-23T06:30:44.065Z,1.20
2018-09-23T06:33:12.358Z,1.50
2018-09-23T06:35:40.833Z,1.50
2018-09-23T06:38:09.319Z,1.23
2018-09-23T06:40:37.605Z,1.30
2018-09-23T06:43:05.886Z,1.30
2018-09-23T06:45:34.273Z,1.50
2018-09-23T06:48:02.484Z,1.30
2018-09-23T06:50:31.123Z,1.60
2018-09-23T06:52:59.367Z,1.50
2018-09-23T06:55:27.684Z,1.50
2018-09-23T06:57:55.957Z,1.70
2018-09-23T07:00:24.231Z,1.90
2018-09-23T07:02:52.494Z,1.50
2018-09-23T07:05:20.823Z,1.60
2018-09-23T07:07:49.104Z,1.53
2018-09-23T07:10:17.374Z,1.53
2018-09-23T07:12:45.634Z,1.70
2018-09-23T07:15:13.912Z,1.50
2018-09-23T07:17:42.215Z,1.90
2018-09-23T07:20:10.489Z,1.60
2018-09-23T07:22:38.769Z,1.67
2018-09-23T07:25:07.191Z,1.70
2018-09-23T07:27:35.532Z,1.90
2018-09-23T07:30:04.374Z,1.70
2018-09-23T07:32:32.652Z,2.60
2018-09-23T07:35:00.925Z,1.97
2018-09-23T07:37:29.212Z,2.20
2018-09-23T07:39:57.556Z,2.30
2018-09-23T07:42:25.901Z,1.87
2018-09-23T07:44:54.217Z,1.93
2018-09-23T07:47:22.748Z,2.90
2018-09-23T07:49:52.957Z,2.73
2018-09-23T07:52:21.245Z,2.40
2018-09-23T07:54:49.564Z,2.53
2018-09-23T07:57:17.892Z,1.97
2018-09-23T07:59:46.197Z,2.40
2018-09-23T08:02:14.505Z,2.20
2018-09-23T08:04:42.797Z,1.90
2018-09-23T08:07:11.088Z,1.70
2018-09-23T08:09:39.376Z,1.70
2018-09-23T08:12:07.672Z,1.93
2018-09-23T08:14:36.375Z,1.60
2018-09-23T08:17:04.277Z,1.70
2018-09-23T08:19:32.684Z,1.80
2018-09-23T08:22:00.874Z,1.80
2018-09-23T08:24:29.144Z,1.70
2018-09-23T08:26:57.437Z,1.20
2018-09-23T08:29:25.710Z,1.53
2018-09-23T08:31:54.017Z,1.47
2018-09-23T08:34:22.309Z,1.33
2018-09-23T08:36:50.587Z,1.30
2018-09-23T08:39:18.860Z,1.30
2018-09-23T08:41:47.166Z,1.47
2018-09-23T08:44:15.445Z,1.50
2018-09-23T08:46:43.768Z,1.70
2018-09-23T08:49:12.037Z,1.50
2018-09-23T08:51:40.334Z,1.53
2018-09-23T08:54:08.589Z,1.80
2018-09-23T08:56:36.900Z,1.70
2018-09-23T08:59:05.197Z,1.60
2018-09-23T09:01:33.465Z,1.60
2018-09-23T09:04:01.729Z,1.43
2018-09-23T09:06:30.017Z,1.53
2018-09-23T09:08:58.280Z,1.53
2018-09-23T09:11:26.560Z,1.60
2018-09-23T09:13:55.022Z,1.20
2018-09-23T09:16:23.295Z,2.07
2018-09-23T09:18:51.647Z,1.60
2018-09-23T09:21:19.888Z,1.53
2018-09-23T09:23:48.151Z,1.50
2018-09-23T09:26:16.408Z,1.30
2018-09-23T09:28:44.681Z,1.20
2018-09-23T09:31:12.969Z,1.93
2018-09-23T09:33:41.633Z,1.67
2018-09-23T09:36:09.920Z,1.50
2018-09-23T09:38:38.286Z,1.30
2018-09-23T09:41:06.788Z,1.30
2018-09-23T09:43:35.109Z,1.30
2018-09-23T09:46:03.385Z,1.50
2018-09-23T09:48:31.678Z,1.20
2018-09-23T09:50:59.983Z,1.53
2018-09-23T09:53:28.289Z,1.57
2018-09-23T09:55:56.539Z,2.97
2018-09-23T09:58:24.806Z,1.67
2018-09-23T10:00:53.096Z,1.60
2018-09-23T10:03:21.341Z,1.90
2018-09-23T10:05:49.673Z,2.13
2018-09-23T10:08:17.936Z,1.63
2018-09-23T10:10:46.206Z,1.70
2018-09-23T10:13:14.488Z,1.70
2018-09-23T10:15:42.745Z,1.50
2018-09-23T10:18:11.065Z,3.20
2018-09-23T10:20:39.351Z,1.73
2018-09-23T10:23:07.709Z,6.00
2018-09-23T10:25:35.924Z,2.00
2018-09-23T10:28:04.205Z,5.57
2018-09-23T10:30:33.282Z,3.87
2018-09-23T10:33:01.566Z,1.50
2018-09-23T10:35:29.837Z,6.20
2018-09-23T10:37:58.121Z,1.23
2018-09-23T10:40:26.391Z,4.97
2018-09-23T10:42:54.679Z,1.27
2018-09-23T10:45:22.949Z,6.80
2018-09-23T10:47:51.221Z,1.20
2018-09-23T10:50:19.488Z,2.50
2018-09-23T10:52:47.761Z,3.47
2018-09-23T10:55:16.026Z,2.13
2018-09-23T10:57:44.279Z,1.23
2018-09-23T11:00:12.565Z,1.37
2018-09-23T11:02:40.842Z,0.90
2018-09-23T11:05:09.133Z,1.03
2018-09-23T11:07:37.401Z,1.40
2018-09-23T11:10:05.700Z,1.10
2018-09-23T11:12:33.980Z,1.27
2018-09-23T11:15:02.265Z,0.93
2018-09-23T11:17:31.400Z,1.20
2018-09-23T11:19:59.697Z,1.00
2018-09-23T11:22:28.032Z,0.97
2018-09-23T11:24:56.333Z,1.30
2018-09-23T11:27:24.573Z,1.10
2018-09-23T11:29:52.963Z,1.00
2018-09-23T11:32:21.225Z,1.03
2018-09-23T11:34:49.498Z,1.00
2018-09-23T11:37:17.781Z,0.97
2018-09-23T11:39:46.046Z,1.00
2018-09-23T11:42:14.324Z,1.00
2018-09-23T11:44:42.637Z,1.20
2018-09-23T11:47:10.922Z,0.80
2018-09-23T11:49:39.208Z,1.00
2018-09-23T11:52:07.494Z,0.90
2018-09-23T11:54:35.787Z,1.30
2018-09-23T11:57:04.105Z,1.00
2018-09-23T11:59:32.393Z,1.00
2018-09-23T12:02:02.637Z,1.00
2018-09-23T12:04:30.899Z,2.10
2018-09-23T12:06:59.148Z,0.80
2018-09-23T12:09:27.428Z,1.20
2018-09-23T12:11:55.702Z,0.90
2018-09-23T12:14:23.988Z,1.20
2018-09-23T12:16:52.270Z,1.20
2018-09-23T12:19:20.545Z,1.00
2018-09-23T12:21:48.810Z,1.10
2018-09-23T12:24:17.121Z,1.00
2018-09-23T12:26:45.432Z,0.90
2018-09-23T12:29:13.744Z,1.20
2018-09-23T12:31:42.122Z,1.00
2018-09-23T12:34:10.372Z,1.37
2018-09-23T12:36:38.653Z,1.20
2018-09-23T12:39:09.433Z,1.10
2018-09-23T12:41:37.852Z,1.20
2018-09-23T12:44:06.533Z,1.27
2018-09-23T12:46:34.873Z,1.10
2018-09-23T12:49:03.210Z,1.17
2018-09-23T12:51:31.476Z,1.20
2018-09-23T12:53:59.870Z,1.33
2018-09-23T12:56:28.138Z,1.30
2018-09-23T12:58:56.421Z,1.00
2018-09-23T13:01:24.714Z,0.90
2018-09-23T13:03:53.008Z,0.90
2018-09-23T13:06:21.268Z,1.13
2018-09-23T13:08:49.552Z,1.00
2018-09-23T13:11:17.841Z,1.10
2018-09-23T13:13:46.148Z,1.27
2018-09-23T13:16:14.422Z,1.00
2018-09-23T13:18:42.756Z,1.13
2018-09-23T13:21:11.028Z,0.90
2018-09-23T13:23:39.326Z,0.90
2018-09-23T13:26:07.605Z,1.40
2018-09-23T13:28:35.879Z,1.30
2018-09-23T13:31:04.169Z,1.03
2018-09-23T13:33:32.460Z,1.00
2018-09-23T13:36:00.736Z,1.10
2018-09-23T13:38:29.008Z,1.00
2018-09-23T13:40:57.360Z,1.03
2018-09-23T13:43:25.675Z,0.90
2018-09-23T13:45:53.945Z,1.00
2018-09-23T13:48:22.249Z,1.00
2018-09-23T13:50:50.540Z,1.00
2018-09-23T13:53:18.826Z,1.03
2018-09-23T13:55:47.136Z,1.00
2018-09-23T13:58:15.417Z,0.90
2018-09-23T14:00:43.773Z,0.90
2018-09-23T14:03:12.069Z,1.00
2018-09-23T14:05:40.360Z,1.00
2018-09-23T14:08:08.658Z,1.10
2018-09-23T14:10:36.944Z,1.00
2018-09-23T14:13:05.316Z,0.90
2018-09-23T14:15:33.650Z,1.10
2018-09-23T14:18:01.928Z,1.10
2018-09-23T14:20:30.221Z,1.00
2018-09-23T14:22:58.532Z,1.10
2018-09-23T14:25:26.815Z,1.17
2018-09-23T14:27:55.125Z,1.10
2018-09-23T14:30:23.445Z,1.10
2018-09-23T14:32:51.748Z,1.37
2018-09-23T14:35:20.073Z,1.30
2018-09-23T14:37:48.297Z,1.37
2018-09-23T14:40:16.569Z,1.00
2018-09-23T14:42:44.837Z,1.10
2018-09-23T14:45:13.115Z,1.43
2018-09-23T14:47:41.437Z,1.10
2018-09-23T14:50:09.756Z,1.70
2018-09-23T14:52:38.060Z,1.00
2018-09-23T14:55:06.459Z,1.10
2018-09-23T14:57:34.680Z,0.97
2018-09-23T15:00:03.421Z,1.03
2018-09-23T15:02:31.306Z,1.00
2018-09-23T15:04:59.601Z,0.90
2018-09-23T15:07:27.877Z,1.10
2018-09-23T15:09:56.149Z,0.90
2018-09-23T15:12:24.457Z,0.97
2018-09-23T15:14:52.836Z,0.97
2018-09-23T15:17:21.114Z,1.30
2018-09-23T15:19:49.396Z,1.67
2018-09-23T15:22:17.664Z,1.20
2018-09-23T15:24:45.934Z,1.07
2018-09-23T15:27:14.217Z,1.30
2018-09-23T15:29:42.489Z,1.10
2018-09-23T15:32:10.856Z,1.30
2018-09-23T15:34:39.036Z,1.20
2018-09-23T15:37:07.310Z,1.10
2018-09-23T15:39:35.584Z,1.30
2018-09-23T15:42:03.949Z,1.37
2018-09-23T15:44:32.238Z,1.00
2018-09-23T15:47:00.541Z,1.10
2018-09-23T15:49:28.844Z,1.30
2018-09-23T15:51:57.212Z,1.10
2018-09-23T15:54:25.484Z,1.07
2018-09-23T15:56:53.769Z,1.30
2018-09-23T15:59:22.044Z,1.10
2018-09-23T16:01:51.173Z,1.03
2018-09-23T16:04:19.461Z,1.10
2018-09-23T16:06:48.332Z,1.20
2018-09-23T16:09:16.600Z,1.20
2018-09-23T16:11:44.892Z,1.20
2018-09-23T16:14:13.191Z,1.20
2018-09-23T16:16:41.465Z,1.10
2018-09-23T16:19:09.817Z,0.80
2018-09-23T16:21:38.044Z,1.80
2018-09-23T16:24:06.361Z,1.20
2018-09-23T16:26:34.623Z,1.20
2018-09-23T16:29:02.917Z,1.17
2018-09-23T16:31:31.188Z,1.30
2018-09-23T16:33:59.473Z,1.40
2018-09-23T16:36:27.751Z,1.10
2018-09-23T16:38:56.198Z,1.60
2018-09-23T16:41:24.488Z,2.30
2018-09-23T16:43:52.773Z,1.50
2018-09-23T16:46:21.039Z,1.47
2018-09-23T16:48:49.342Z,1.20
2018-09-23T16:51:17.624Z,2.23
2018-09-23T16:53:45.911Z,1.50
2018-09-23T16:56:14.194Z,2.77
2018-09-23T16:58:42.480Z,3.13
2018-09-23T17:01:10.813Z,3.93
2018-09-23T17:03:39.036Z,1.73
2018-09-23T17:06:07.316Z,1.77
2018-09-23T17:08:35.580Z,1.20
2018-09-23T17:11:03.877Z,1.57
2018-09-23T17:13:32.165Z,1.27
2018-09-23T17:16:00.448Z,1.20
2018-09-23T17:18:28.758Z,1.13
2018-09-23T17:20:57.044Z,1.30
2018-09-23T17:23:25.325Z,2.17
2018-09-23T17:25:53.608Z,1.57
2018-09-23T17:28:21.913Z,1.20
2018-09-23T17:30:50.160Z,1.40
2018-09-23T17:33:18.421Z,1.13
2018-09-23T17:35:46.780Z,10.07
2018-09-23T17:38:15.045Z,2.47
2018-09-23T17:40:43.338Z,1.77
2018-09-23T17:43:11.592Z,1.77
2018-09-23T17:45:39.944Z,1.47
2018-09-23T17:48:08.230Z,3.43
2018-09-23T17:50:36.562Z,2.50
2018-09-23T17:53:04.874Z,2.67
2018-09-23T17:55:33.246Z,3.07
2018-09-23T17:58:01.476Z,1.77
2018-09-23T18:00:29.751Z,3.10
2018-09-23T18:02:58.024Z,2.87
2018-09-23T18:05:26.289Z,1.73
2018-09-23T18:07:54.757Z,1.63
2018-09-23T18:10:23.136Z,1.33
2018-09-23T18:12:51.422Z,1.10
2018-09-23T18:15:19.717Z,1.20
2018-09-23T18:17:47.996Z,1.30
2018-09-23T18:20:16.298Z,1.47
2018-09-23T18:22:44.584Z,1.10
2018-09-23T18:25:12.968Z,1.30
2018-09-23T18:27:41.546Z,1.10
2018-09-23T18:30:09.835Z,1.00
2018-09-23T18:32:38.117Z,1.23
2018-09-23T18:35:06.420Z,1.07
2018-09-23T18:37:34.754Z,1.17
2018-09-23T18:40:02.996Z,1.03
2018-09-23T18:42:31.268Z,1.10
2018-09-23T18:44:59.650Z,1.10
2018-09-23T18:47:27.946Z,1.47
2018-09-23T18:49:56.274Z,1.20
2018-09-23T18:52:24.523Z,1.13
2018-09-23T18:54:58.222Z,1.17
2018-09-23T18:57:26.527Z,1.20
2018-09-23T18:59:56.966Z,1.10
2018-09-23T19:02:25.358Z,1.20
2018-09-23T19:04:54.084Z,1.20
2018-09-23T19:07:22.380Z,1.20
2018-09-23T19:09:50.678Z,1.13
2018-09-23T19:12:18.968Z,1.10
2018-09-23T19:14:47.231Z,1.10
2018-09-23T19:17:15.497Z,1.10
2018-09-23T19:19:48.974Z,1.40
2018-09-23T19:22:22.572Z,1.40
2018-09-23T19:24:50.864Z,1.67
2018-09-23T19:27:19.149Z,1.30
2018-09-23T19:29:47.428Z,1.30
2018-09-23T19:32:15.708Z,1.33
2018-09-23T19:34:44.052Z,1.53
2018-09-23T19:37:12.313Z,1.53
2018-09-23T19:39:40.614Z,1.23
2018-09-23T19:42:08.900Z,1.40
2018-09-23T19:44:37.204Z,1.20
2018-09-23T19:47:06.072Z,1.50
2018-09-23T19:49:34.365Z,1.27
2018-09-23T19:52:02.639Z,1.20
2018-09-23T19:54:30.928Z,1.20
2018-09-23T19:56:59.237Z,0.90
2018-09-23T19:59:27.507Z,1.30
2018-09-23T20:01:55.802Z,1.60
2018-09-23T20:04:24.084Z,1.30
2018-09-23T20:06:52.381Z,1.07
2018-09-23T20:09:20.665Z,1.20
2018-09-23T20:11:48.970Z,1.20
2018-09-23T20:14:17.256Z,1.10
2018-09-23T20:16:45.524Z,1.33
2018-09-23T20:19:13.877Z,1.20
2018-09-23T20:21:42.465Z,0.97
2018-09-23T20:24:10.815Z,1.20
2018-09-23T20:26:39.126Z,0.90
2018-09-23T20:29:07.402Z,1.03
2018-09-23T20:31:35.702Z,1.30
2018-09-23T20:34:04.066Z,1.10
2018-09-23T20:36:32.413Z,0.90
2018-09-23T20:39:00.854Z,1.00
2018-09-23T20:41:29.020Z,0.97
2018-09-23T20:43:57.459Z,1.00
2018-09-23T20:46:25.645Z,0.80
2018-09-23T20:48:53.940Z,1.00
2018-09-23T20:51:22.242Z,1.13
2018-09-23T20:53:50.535Z,0.93
2018-09-23T20:56:18.938Z,1.00
2018-09-23T20:58:47.209Z,0.97
2018-09-23T21:01:15.525Z,0.73
2018-09-23T21:03:43.828Z,1.00
2018-09-23T21:06:12.101Z,0.97
2018-09-23T21:08:40.416Z,1.20
2018-09-23T21:11:08.701Z,1.20
2018-09-23T21:13:36.996Z,0.80
2018-09-23T21:16:05.301Z,1.00
2018-09-23T21:18:33.616Z,0.80
2018-09-23T21:21:01.915Z,0.90
2018-09-23T21:23:30.185Z,1.10
2018-09-23T21:25:58.466Z,0.90
2018-09-23T21:28:26.744Z,0.83
2018-09-23T21:30:55.022Z,0.93
2018-09-23T21:33:23.309Z,1.20
2018-09-23T21:35:51.594Z,0.80
2018-09-23T21:38:19.910Z,1.03
2018-09-23T21:40:48.182Z,1.10
2018-09-23T21:43:16.460Z,0.90
2018-09-23T21:45:44.801Z,1.10
2018-09-23T21:48:13.066Z,1.30
2018-09-23T21:50:41.330Z,1.00
2018-09-23T21:53:09.617Z,0.97
2018-09-23T21:55:37.880Z,1.03
2018-09-23T21:58:06.157Z,0.93
2018-09-23T22:00:39.796Z,1.10
2018-09-23T22:03:08.056Z,1.10
2018-09-23T22:05:36.345Z,1.27
2018-09-23T22:08:04.609Z,1.20
2018-09-23T22:10:32.874Z,1.10
2018-09-23T22:13:01.141Z,1.10
2018-09-23T22:15:29.412Z,1.27
2018-09-23T22:17:57.965Z,1.20
2018-09-23T22:20:26.779Z,1.50
2018-09-23T22:22:55.740Z,1.50
2018-09-23T22:25:24.304Z,1.00
2018-09-23T22:27:53.607Z,1.17
2018-09-23T22:30:22.284Z,0.93
2018-09-23T22:32:50.549Z,0.83
2018-09-23T22:35:18.829Z,0.97
2018-09-23T22:37:47.145Z,1.10
2018-09-23T22:40:15.432Z,1.10
2018-09-23T22:42:43.713Z,0.97
2018-09-23T22:45:11.988Z,1.30
2018-09-23T22:47:40.244Z,1.20
2018-09-23T22:50:08.576Z,0.90
2018-09-23T22:52:36.833Z,1.03
2018-09-23T22:55:05.140Z,0.90
2018-09-23T22:57:33.397Z,1.10
2018-09-23T23:00:01.676Z,1.20
2018-09-23T23:02:29.944Z,1.30
2018-09-23T23:04:58.209Z,1.10
2018-09-23T23:07:26.470Z,0.90
2018-09-23T23:09:54.744Z,0.90
2018-09-23T23:12:23.008Z,0.80
2018-09-23T23:14:51.278Z,0.60
2018-09-23T23:17:19.547Z,0.70
2018-09-23T23:19:47.830Z,0.80
2018-09-23T23:22:16.092Z,0.80
2018-09-23T23:24:44.345Z,0.60
2018-09-23T23:27:12.689Z,0.80
2018-09-23T23:29:40.962Z,1.00
2018-09-23T23:32:09.228Z,0.90
2018-09-23T23:34:37.480Z,0.90
2018-09-23T23:37:05.792Z,1.00
2018-09-23T23:39:34.052Z,0.90
2018-09-23T23:42:02.305Z,1.10
2018-09-23T23:44:30.556Z,1.20
2018-09-23T23:46:58.829Z,1.00
2018-09-23T23:49:27.081Z,1.10
2018-09-23T23:51:55.344Z,1.10
2018-09-23T23:54:23.623Z,0.90
2018-09-23T23:56:51.875Z,1.13
2018-09-23T23:59:20.124Z,1.20
